createdAt,value
2024-04-24T00:01:27.633Z,3.63
2024-04-24T00:03:54.928Z,4.65
2024-04-24T00:06:23.168Z,4.18
2024-04-24T00:08:53.211Z,5.95
2024-04-24T00:11:21.481Z,5.75
2024-04-24T00:13:48.911Z,4.78
2024-04-24T00:16:16.287Z,4.38
2024-04-24T00:18:43.974Z,4.93
2024-04-24T00:21:14.008Z,3.92
2024-04-24T00:23:41.322Z,5.13
2024-04-24T00:26:11.705Z,4.55
2024-04-24T00:28:39.064Z,5.28
2024-04-24T00:31:06.372Z,4.68
2024-04-24T00:33:33.850Z,5.50
2024-04-24T00:36:01.293Z,5.57
2024-04-24T00:38:28.756Z,5.20
2024-04-24T00:40:56.191Z,5.40
2024-04-24T00:43:26.180Z,5.20
2024-04-24T00:45:53.628Z,4.40
2024-04-24T00:48:21.091Z,4.88
2024-04-24T00:50:49.012Z,5.65
2024-04-24T00:53:16.499Z,4.68
2024-04-24T00:55:44.325Z,4.78
2024-04-24T00:58:13.816Z,6.25
2024-04-24T01:00:44.415Z,4.93
2024-04-24T01:03:12.262Z,4.50
2024-04-24T01:05:39.798Z,5.47
2024-04-24T01:08:07.613Z,4.53
2024-04-24T01:10:34.936Z,5.82
2024-04-24T01:13:02.434Z,5.82
2024-04-24T01:15:30.267Z,5.68
2024-04-24T01:18:00.910Z,6.22
2024-04-24T01:20:29.160Z,6.05
2024-04-24T01:23:18.655Z,4.40
2024-04-24T01:25:51.281Z,6.15
2024-04-24T01:28:23.081Z,4.75
2024-04-24T01:30:50.567Z,4.70
2024-04-24T01:33:18.326Z,7.28
2024-04-24T01:35:45.913Z,5.78
2024-04-24T01:38:13.360Z,5.40
2024-04-24T01:40:40.696Z,5.63
2024-04-24T01:43:08.028Z,6.05
2024-04-24T01:45:38.308Z,5.75
2024-04-24T01:48:06.539Z,7.00
2024-04-24T01:50:34.065Z,6.25
2024-04-24T01:53:01.594Z,6.10
2024-04-24T01:55:29.098Z,6.13
2024-04-24T01:57:56.420Z,5.85
2024-04-24T02:00:23.792Z,5.30
2024-04-24T02:02:54.019Z,4.97
2024-04-24T02:05:21.391Z,5.97
2024-04-24T02:07:48.950Z,5.50
2024-04-24T02:10:16.549Z,6.43
2024-04-24T02:12:43.954Z,6.32
2024-04-24T02:15:11.592Z,6.43
2024-04-24T02:17:38.923Z,6.00
2024-04-24T02:20:10.227Z,6.20
2024-04-24T02:22:39.765Z,6.90
2024-04-24T02:25:25.835Z,5.80
2024-04-24T02:27:53.233Z,5.78
2024-04-24T02:30:20.537Z,6.65
2024-04-24T02:32:48.061Z,6.70
2024-04-24T02:35:18.380Z,7.05
2024-04-24T02:37:45.862Z,6.82
2024-04-24T02:40:13.341Z,6.63
2024-04-24T02:42:40.688Z,7.97
2024-04-24T02:45:08.564Z,8.48
2024-04-24T02:47:36.105Z,7.97
2024-04-24T02:50:03.766Z,8.15
2024-04-24T02:52:34.039Z,8.00
2024-04-24T02:55:01.412Z,7.40
2024-04-24T02:57:29.895Z,8.50
2024-04-24T02:59:57.217Z,8.13
2024-04-24T03:02:24.608Z,6.82
2024-04-24T03:04:52.126Z,7.50
2024-04-24T03:07:19.455Z,6.45
2024-04-24T03:09:49.475Z,7.68
2024-04-24T03:12:16.883Z,7.43
2024-04-24T03:14:44.228Z,7.40
2024-04-24T03:17:11.646Z,6.57
2024-04-24T03:19:39.152Z,6.88
2024-04-24T03:22:06.587Z,7.97
2024-04-24T03:24:33.884Z,6.93
2024-04-24T03:27:04.015Z,5.88
2024-04-24T03:29:31.782Z,7.00
2024-04-24T03:31:59.237Z,7.60
2024-04-24T03:34:26.670Z,6.70
2024-04-24T03:36:54.002Z,7.40
2024-04-24T03:39:21.305Z,5.47
2024-04-24T03:41:48.583Z,5.28
2024-04-24T03:44:19.007Z,7.22
2024-04-24T03:46:46.497Z,6.35
2024-04-24T03:49:14.081Z,7.07
2024-04-24T03:51:41.421Z,6.40
2024-04-24T03:54:08.794Z,5.95
2024-04-24T03:56:36.213Z,6.75
2024-04-24T03:59:03.782Z,6.85
2024-04-24T04:01:33.798Z,6.43
2024-04-24T04:04:03.356Z,6.47
2024-04-24T04:06:31.063Z,6.28
2024-04-24T04:08:58.392Z,7.20
2024-04-24T04:11:25.808Z,5.85
2024-04-24T04:13:55.270Z,7.78
2024-04-24T04:16:22.653Z,7.03
2024-04-24T04:18:52.872Z,6.55
2024-04-24T04:21:20.237Z,6.43
2024-04-24T04:23:47.505Z,6.97
2024-04-24T04:26:15.049Z,6.82
2024-04-24T04:28:42.517Z,6.68
2024-04-24T04:31:09.806Z,6.75
2024-04-24T04:33:37.422Z,7.18
2024-04-24T04:36:08.784Z,8.00
2024-04-24T04:38:36.108Z,7.30
2024-04-24T04:41:04.879Z,7.68
2024-04-24T04:43:32.217Z,7.30
2024-04-24T04:45:59.727Z,7.18
2024-04-24T04:48:27.118Z,7.05
2024-04-24T04:50:54.804Z,7.07
2024-04-24T04:53:24.886Z,7.72
2024-04-24T04:55:52.241Z,7.78
2024-04-24T04:58:19.488Z,7.30
2024-04-24T05:00:46.833Z,7.00
2024-04-24T05:03:14.358Z,8.18
2024-04-24T05:05:41.764Z,7.20
2024-04-24T05:08:09.198Z,6.97
2024-04-24T05:10:39.307Z,7.43
2024-04-24T05:13:10.701Z,6.38
2024-04-24T05:15:38.510Z,7.32
2024-04-24T05:18:06.376Z,5.75
2024-04-24T05:20:33.940Z,6.80
2024-04-24T05:23:05.676Z,6.50
2024-04-24T05:25:37.905Z,5.65
2024-04-24T05:28:28.932Z,5.00
2024-04-24T05:30:56.468Z,5.22
2024-04-24T05:33:24.043Z,5.47
2024-04-24T05:35:51.529Z,5.30
2024-04-24T05:38:18.904Z,5.68
2024-04-24T05:40:46.363Z,4.15
2024-04-24T05:43:17.017Z,5.30
2024-04-24T05:45:44.515Z,3.30
2024-04-24T05:48:12.445Z,4.10
2024-04-24T05:50:39.851Z,3.40
2024-04-24T05:53:07.256Z,4.40
2024-04-24T05:55:34.545Z,3.95
2024-04-24T05:58:01.924Z,3.90
2024-04-24T06:00:32.046Z,2.92
2024-04-24T06:03:00.300Z,3.58
2024-04-24T06:05:27.889Z,3.45
2024-04-24T06:07:56.814Z,3.28
2024-04-24T06:10:24.332Z,3.50
2024-04-24T06:12:51.646Z,4.75
2024-04-24T06:15:19.090Z,4.13
2024-04-24T06:17:49.227Z,4.40
2024-04-24T06:20:18.125Z,4.50
2024-04-24T06:22:45.884Z,3.83
2024-04-24T06:25:13.274Z,4.85
2024-04-24T06:27:40.666Z,4.38
2024-04-24T06:30:08.590Z,4.82
2024-04-24T06:32:36.108Z,4.20
2024-04-24T06:35:06.273Z,4.50
2024-04-24T06:37:33.839Z,3.67
2024-04-24T06:40:01.172Z,2.90
2024-04-24T06:42:29.556Z,3.10
2024-04-24T06:44:56.941Z,3.55
2024-04-24T06:47:24.411Z,3.38
2024-04-24T06:49:51.910Z,2.60
2024-04-24T06:52:22.033Z,2.40
2024-04-24T06:54:49.484Z,3.08
2024-04-24T06:57:18.362Z,3.13
2024-04-24T06:59:48.586Z,2.53
2024-04-24T07:02:16.152Z,2.65
2024-04-24T07:04:43.506Z,2.53
2024-04-24T07:07:11.037Z,3.08
2024-04-24T07:09:41.283Z,3.08
2024-04-24T07:12:08.628Z,2.83
2024-04-24T07:14:35.982Z,3.50
2024-04-24T07:17:03.594Z,2.83
2024-04-24T07:19:31.016Z,2.95
2024-04-24T07:21:58.578Z,2.85
2024-04-24T07:24:25.935Z,3.40
2024-04-24T07:26:58.183Z,2.67
2024-04-24T07:29:25.782Z,2.90
2024-04-24T07:31:53.447Z,2.33
2024-04-24T07:34:21.128Z,3.30
2024-04-24T07:36:48.572Z,2.83
2024-04-24T07:39:15.984Z,3.45
2024-04-24T07:41:43.934Z,3.47
2024-04-24T07:46:41.572Z,2.45
2024-04-24T07:49:08.868Z,2.20
2024-04-24T07:51:36.311Z,2.70
2024-04-24T07:54:03.735Z,3.33
2024-04-24T07:56:31.168Z,3.83
2024-04-24T07:58:58.653Z,3.35
2024-04-24T08:01:28.867Z,4.05
2024-04-24T08:03:56.473Z,2.42
2024-04-24T08:06:23.854Z,2.17
2024-04-24T08:08:51.138Z,2.58
2024-04-24T08:11:18.679Z,2.15
2024-04-24T08:13:46.090Z,2.10
2024-04-24T08:16:13.516Z,2.42
2024-04-24T08:18:45.418Z,1.95
2024-04-24T08:21:12.832Z,2.58
2024-04-24T08:23:40.332Z,1.98
2024-04-24T08:26:08.636Z,2.08
2024-04-24T08:28:40.972Z,2.08
2024-04-24T08:31:09.619Z,2.38
2024-04-24T08:33:37.716Z,2.55
2024-04-24T08:36:13.635Z,2.00
2024-04-24T08:38:41.406Z,1.50
2024-04-24T08:41:09.776Z,1.98
2024-04-24T08:43:38.476Z,2.20
2024-04-24T08:46:07.093Z,2.00
2024-04-24T08:48:35.750Z,1.60
2024-04-24T08:51:03.663Z,2.00
2024-04-24T08:53:34.597Z,1.42
2024-04-24T08:56:04.338Z,2.10
2024-04-24T08:58:33.739Z,1.70
2024-04-24T09:01:05.477Z,1.38
2024-04-24T09:03:35.009Z,1.75
2024-04-24T09:06:03.989Z,1.50
2024-04-24T09:08:36.417Z,1.70
2024-04-24T09:11:04.149Z,1.50
2024-04-24T09:16:01.120Z,1.65
2024-04-24T09:18:28.745Z,1.75
2024-04-24T09:20:56.985Z,1.83
2024-04-24T09:23:25.769Z,2.55
2024-04-24T09:25:56.981Z,1.50
2024-04-24T09:28:24.810Z,1.10
2024-04-24T09:30:53.857Z,1.15
2024-04-24T09:33:22.019Z,1.38
2024-04-24T09:35:49.577Z,1.02
2024-04-24T09:38:17.074Z,1.20
2024-04-24T09:40:44.729Z,1.33
2024-04-24T09:43:14.736Z,2.00
2024-04-24T09:45:42.226Z,1.23
2024-04-24T09:48:17.556Z,1.13
2024-04-24T09:50:47.003Z,1.23
2024-04-24T09:53:17.284Z,1.40
2024-04-24T09:55:49.393Z,1.55
2024-04-24T09:58:23.571Z,1.70
2024-04-24T10:00:52.380Z,1.90
2024-04-24T10:03:20.968Z,1.10
2024-04-24T10:05:56.568Z,1.08
2024-04-24T10:08:30.785Z,1.25
2024-04-24T10:10:58.505Z,1.33
2024-04-24T10:13:29.615Z,2.08
2024-04-24T10:16:04.685Z,1.27
2024-04-24T10:18:34.537Z,1.38
2024-04-24T10:21:04.645Z,1.20
2024-04-24T10:23:32.566Z,1.52
2024-04-24T10:26:00.497Z,1.20
2024-04-24T10:28:31.884Z,1.08
2024-04-24T10:31:00.548Z,1.92
2024-04-24T10:33:28.515Z,1.40
2024-04-24T10:35:57.072Z,1.40
2024-04-24T10:38:27.413Z,1.27
2024-04-24T10:40:55.029Z,1.40
2024-04-24T10:46:01.497Z,1.30
2024-04-24T10:48:43.966Z,1.25
2024-04-24T10:51:11.365Z,1.35
2024-04-24T10:53:55.799Z,1.50
2024-04-24T10:56:34.216Z,1.40
2024-04-24T10:59:03.764Z,1.35
2024-04-24T11:01:42.128Z,1.15
2024-04-24T11:04:16.540Z,1.45
2024-04-24T11:06:44.213Z,1.40
2024-04-24T11:09:11.979Z,1.35
2024-04-24T11:11:39.700Z,2.05
2024-04-24T11:14:11.107Z,1.73
2024-04-24T11:16:55.405Z,0.90
2024-04-24T11:19:25.789Z,1.40
2024-04-24T11:21:53.123Z,0.88
2024-04-24T11:24:28.480Z,1.27
2024-04-24T11:26:55.957Z,0.93
2024-04-24T11:29:23.532Z,1.23
2024-04-24T11:34:21.243Z,0.90
2024-04-24T11:36:49.209Z,1.58
2024-04-24T11:39:18.899Z,0.70
2024-04-24T11:41:50.695Z,0.73
2024-04-24T11:44:18.316Z,0.93
2024-04-24T11:46:48.609Z,0.75
2024-04-24T11:49:20.996Z,2.35
2024-04-24T11:51:48.572Z,0.95
2024-04-24T11:54:16.289Z,0.77
2024-04-24T11:56:45.818Z,0.90
2024-04-24T11:59:15.828Z,1.25
2024-04-24T12:01:43.500Z,1.25
2024-04-24T12:04:10.993Z,0.70
2024-04-24T12:09:09.222Z,1.40
2024-04-24T12:11:40.372Z,1.13
2024-04-24T12:14:08.062Z,1.02
2024-04-24T12:16:35.392Z,1.20
2024-04-24T12:19:02.723Z,1.00
2024-04-24T12:21:30.257Z,0.90
2024-04-24T12:26:30.467Z,0.82
2024-04-24T12:28:57.890Z,1.02
2024-04-24T12:31:25.402Z,0.85
2024-04-24T12:33:53.030Z,0.82
2024-04-24T12:36:20.546Z,1.20
2024-04-24T12:41:17.783Z,1.00
2024-04-24T12:43:45.247Z,1.10
2024-04-24T12:46:12.534Z,0.60
2024-04-24T12:48:40.802Z,1.23
2024-04-24T12:51:09.041Z,1.10
2024-04-24T12:53:36.669Z,0.70
2024-04-24T12:56:04.656Z,1.15
2024-04-24T12:58:34.969Z,0.77
2024-04-24T13:01:02.464Z,1.00
2024-04-24T13:03:30.018Z,1.00
2024-04-24T13:05:57.345Z,1.02
2024-04-24T13:08:24.786Z,0.80
2024-04-24T13:13:19.611Z,0.70
2024-04-24T13:15:49.760Z,2.22
2024-04-24T13:18:20.555Z,0.65
2024-04-24T13:20:49.450Z,0.70
2024-04-24T13:25:48.993Z,0.77
2024-04-24T13:28:16.882Z,0.95
2024-04-24T13:30:44.874Z,0.80
2024-04-24T13:33:14.950Z,1.10
2024-04-24T13:35:42.343Z,0.60
2024-04-24T13:40:36.906Z,0.93
2024-04-24T13:43:04.793Z,0.60
2024-04-24T13:45:32.216Z,0.82
2024-04-24T13:47:59.647Z,0.65
2024-04-24T13:50:29.936Z,0.85
2024-04-24T13:52:57.384Z,0.77
2024-04-24T13:55:24.817Z,0.70
2024-04-24T13:57:52.192Z,1.13
2024-04-24T14:00:19.739Z,1.55
2024-04-24T14:02:48.766Z,0.90
2024-04-24T14:05:16.246Z,0.90
2024-04-24T14:07:46.339Z,1.17
2024-04-24T14:10:13.885Z,0.30
2024-04-24T14:12:41.188Z,0.20
2024-04-24T14:17:39.119Z,0.28
2024-04-24T14:20:07.778Z,0.10
2024-04-24T14:22:35.123Z,0.20
2024-04-24T14:25:06.356Z,0.63
2024-04-24T14:27:33.715Z,0.10
2024-04-24T14:32:28.413Z,0.30
2024-04-24T14:34:55.996Z,0.30
2024-04-24T14:39:50.387Z,0.50
2024-04-24T14:42:22.387Z,0.20
2024-04-24T14:44:49.823Z,0.20
2024-04-24T14:49:47.461Z,0.20
2024-04-24T14:52:19.289Z,0.65
2024-04-24T14:54:46.633Z,0.50
2024-04-24T14:59:44.045Z,0.10
2024-04-24T15:02:11.513Z,0.75
2024-04-24T15:04:39.075Z,0.40
2024-04-24T15:07:16.741Z,0.43
2024-04-24T15:09:44.208Z,0.32
2024-04-24T15:12:12.206Z,0.20
2024-04-24T15:14:39.844Z,0.38
2024-04-24T15:19:39.499Z,0.28
2024-04-24T15:22:08.181Z,0.20
2024-04-24T15:24:36.131Z,0.22
2024-04-24T15:27:04.045Z,0.20
2024-04-24T15:29:31.544Z,0.30
2024-04-24T15:31:59.220Z,0.22
2024-04-24T15:34:29.277Z,0.28
2024-04-24T15:36:56.748Z,0.10
2024-04-24T15:39:24.220Z,0.20
2024-04-24T15:41:56.116Z,0.40
2024-04-24T15:44:23.555Z,0.25
2024-04-24T15:46:50.979Z,0.22
2024-04-24T15:49:19.416Z,0.30
2024-04-24T15:51:49.513Z,0.40
2024-04-24T15:54:16.954Z,0.10
2024-04-24T15:56:44.272Z,0.50
2024-04-24T15:59:11.708Z,0.20
2024-04-24T16:01:38.951Z,0.22
2024-04-24T16:04:06.247Z,0.30
2024-04-24T16:06:33.653Z,0.40
2024-04-24T16:09:03.718Z,0.40
2024-04-24T16:11:31.138Z,0.20
2024-04-24T16:13:58.680Z,0.13
2024-04-24T16:18:53.526Z,0.45
2024-04-24T16:21:21.529Z,0.30
2024-04-24T16:23:49.102Z,0.22
2024-04-24T16:26:19.013Z,0.43
2024-04-24T16:28:46.638Z,0.80
2024-04-24T16:31:14.163Z,0.20
2024-04-24T16:36:11.575Z,0.35
2024-04-24T16:38:39.108Z,0.57
2024-04-24T16:43:38.073Z,0.40
2024-04-24T16:46:05.489Z,0.50
2024-04-24T16:48:33.004Z,0.80
2024-04-24T16:51:00.623Z,0.50
2024-04-24T16:53:28.043Z,0.43
2024-04-24T16:55:55.515Z,0.50
2024-04-24T16:58:23.007Z,0.40
2024-04-24T17:00:53.132Z,0.40
2024-04-24T17:03:20.675Z,0.63
2024-04-24T17:05:48.001Z,0.45
2024-04-24T17:08:15.423Z,0.47
2024-04-24T17:10:43.364Z,0.32
2024-04-24T17:13:10.725Z,0.70
2024-04-24T17:15:38.866Z,0.88
2024-04-24T17:18:09.139Z,1.02
2024-04-24T17:20:36.616Z,0.55
2024-04-24T17:23:04.212Z,0.55
2024-04-24T17:25:31.602Z,0.43
2024-04-24T17:27:59.079Z,0.47
2024-04-24T17:30:26.471Z,0.35
2024-04-24T17:32:53.926Z,0.30
2024-04-24T17:35:26.187Z,0.43
2024-04-24T17:37:53.678Z,0.30
2024-04-24T17:40:21.312Z,0.20
2024-04-24T17:42:48.765Z,0.30
2024-04-24T17:45:16.225Z,0.28
2024-04-24T17:47:44.205Z,0.30
2024-04-24T17:52:41.683Z,0.47
2024-04-24T17:55:09.017Z,0.35
2024-04-24T17:57:37.105Z,0.50
2024-04-24T18:00:05.109Z,0.35
2024-04-24T18:02:33.545Z,0.32
2024-04-24T18:05:02.613Z,0.50
2024-04-24T18:07:30.054Z,0.32
2024-04-24T18:10:00.180Z,0.43
2024-04-24T18:12:27.502Z,0.60
2024-04-24T18:14:55.818Z,0.47
2024-04-24T18:17:23.138Z,0.40
2024-04-24T18:19:50.869Z,0.70
2024-04-24T18:22:18.257Z,0.60
2024-04-24T18:24:45.534Z,0.35
2024-04-24T18:27:15.670Z,0.17
2024-04-24T18:29:43.220Z,0.38
2024-04-24T18:32:10.819Z,0.50
2024-04-24T18:34:38.909Z,0.50
2024-04-24T18:37:07.710Z,0.60
2024-04-24T18:39:36.226Z,0.60
2024-04-24T18:42:03.923Z,0.60
2024-04-24T18:44:34.115Z,0.60
2024-04-24T18:47:01.567Z,0.63
2024-04-24T18:49:29.060Z,0.88
2024-04-24T18:51:56.562Z,0.80
2024-04-24T18:54:24.236Z,0.88
2024-04-24T18:56:51.751Z,0.95
2024-04-24T18:59:19.617Z,0.65
2024-04-24T19:01:50.031Z,0.75
2024-04-24T19:04:18.247Z,0.88
2024-04-24T19:06:45.814Z,0.63
2024-04-24T19:09:13.271Z,0.63
2024-04-24T19:11:40.844Z,0.63
2024-04-24T19:14:10.563Z,0.68
2024-04-24T19:16:38.219Z,0.77
2024-04-24T19:19:08.326Z,0.40
2024-04-24T19:21:35.759Z,0.70
2024-04-24T19:24:03.215Z,0.52
2024-04-24T19:26:30.892Z,0.57
2024-04-24T19:28:58.301Z,0.60
2024-04-24T19:31:32.611Z,0.60
2024-04-24T19:34:01.308Z,0.40
2024-04-24T19:36:31.868Z,0.50
2024-04-24T19:38:59.294Z,0.28
2024-04-24T19:41:26.822Z,0.57
2024-04-24T19:43:54.332Z,0.80
2024-04-24T19:46:21.808Z,0.85
2024-04-24T19:48:52.613Z,0.28
2024-04-24T19:51:20.137Z,0.43
2024-04-24T19:53:54.665Z,0.80
2024-04-24T19:58:49.465Z,0.52
2024-04-24T20:01:16.921Z,0.80
2024-04-24T20:03:44.534Z,0.52
2024-04-24T20:06:13.115Z,0.73
2024-04-24T20:08:40.722Z,0.40
2024-04-24T20:11:10.892Z,0.68
2024-04-24T20:13:38.379Z,0.50
2024-04-24T20:16:06.607Z,0.70
2024-04-24T20:18:35.723Z,0.50
2024-04-24T20:21:03.581Z,0.88
2024-04-24T20:23:31.192Z,0.52
2024-04-24T20:25:58.672Z,1.00
2024-04-24T20:28:28.723Z,0.80
2024-04-24T20:30:56.587Z,0.43
2024-04-24T20:33:25.386Z,0.88
2024-04-24T20:35:53.011Z,1.02
2024-04-24T20:38:20.469Z,0.52
2024-04-24T20:40:47.946Z,1.02
2024-04-24T20:43:15.362Z,0.80
2024-04-24T20:45:45.446Z,0.75
2024-04-24T20:48:13.145Z,0.70
2024-04-24T20:50:40.758Z,0.45
2024-04-24T20:53:09.232Z,0.50
2024-04-24T20:55:36.698Z,0.52
2024-04-24T20:58:04.516Z,0.73
2024-04-24T21:00:31.964Z,0.82
2024-04-24T21:03:02.348Z,0.70
2024-04-24T21:05:30.174Z,1.10
2024-04-24T21:07:57.617Z,0.93
2024-04-24T21:10:25.025Z,0.85
2024-04-24T21:12:52.427Z,0.93
2024-04-24T21:15:19.785Z,0.60
2024-04-24T21:17:47.286Z,0.68
2024-04-24T21:20:17.616Z,0.30
2024-04-24T21:22:45.177Z,0.60
2024-04-24T21:25:13.224Z,0.50
2024-04-24T21:27:40.790Z,0.63
2024-04-24T21:30:08.859Z,0.80
2024-04-24T21:32:36.349Z,0.85
2024-04-24T21:35:04.014Z,0.80
2024-04-24T21:37:36.650Z,1.35
2024-04-24T21:40:08.295Z,0.70
2024-04-24T21:42:35.639Z,0.63
2024-04-24T21:45:03.098Z,0.68
2024-04-24T21:47:30.721Z,0.50
2024-04-24T21:49:58.046Z,0.60
2024-04-24T21:52:25.554Z,0.52
2024-04-24T21:54:55.683Z,0.50
2024-04-24T21:57:23.084Z,0.75
2024-04-24T21:59:50.460Z,0.65
2024-04-24T22:02:18.962Z,0.77
2024-04-24T22:04:46.441Z,0.65
2024-04-24T22:07:13.943Z,1.25
2024-04-24T22:09:41.392Z,0.82
2024-04-24T22:12:14.286Z,0.52
2024-04-24T22:14:42.089Z,0.70
2024-04-24T22:17:19.132Z,0.63
2024-04-24T22:19:52.384Z,0.85
2024-04-24T22:22:20.513Z,0.80
2024-04-24T22:24:47.901Z,1.20
2024-04-24T22:27:17.911Z,1.00
2024-04-24T22:29:45.316Z,0.52
2024-04-24T22:32:12.742Z,0.93
2024-04-24T22:34:40.600Z,0.80
2024-04-24T22:37:08.597Z,0.65
2024-04-24T22:39:36.282Z,0.40
2024-04-24T22:42:04.930Z,0.70
2024-04-24T22:44:35.339Z,0.70
2024-04-24T22:47:02.747Z,0.65
2024-04-24T22:49:30.054Z,0.88
2024-04-24T22:51:57.624Z,1.00
2024-04-24T22:54:24.985Z,0.80
2024-04-24T22:56:52.773Z,0.93
2024-04-24T22:59:20.403Z,0.65
2024-04-24T23:01:54.188Z,0.75
2024-04-24T23:04:21.697Z,0.85
2024-04-24T23:06:48.980Z,0.82
2024-04-24T23:09:16.350Z,0.88
2024-04-24T23:11:43.732Z,0.88
2024-04-24T23:14:11.154Z,0.88
2024-04-24T23:16:38.623Z,0.90
2024-04-24T23:19:08.648Z,0.60
2024-04-24T23:21:36.153Z,0.57
2024-04-24T23:24:03.611Z,0.63
2024-04-24T23:26:30.937Z,0.52
2024-04-24T23:28:58.280Z,0.52
2024-04-24T23:31:25.749Z,0.50
2024-04-24T23:33:53.186Z,0.80
2024-04-24T23:36:23.323Z,0.60
2024-04-24T23:38:50.676Z,0.55
2024-04-24T23:41:18.238Z,0.60
2024-04-24T23:43:45.632Z,0.60
2024-04-24T23:46:13.240Z,1.13
2024-04-24T23:48:40.551Z,0.80
2024-04-24T23:51:08.003Z,0.52
2024-04-24T23:53:38.218Z,0.70
2024-04-24T23:56:06.825Z,0.75
2024-04-24T23:58:34.635Z,0.68
